Time;durP1;ratioP1;P1;durP2;ratioP2;P2;SDS_P1;SDS_P2;PMS_P1;PMS_P2;Temp;Humidity;BMP_temperature;BMP_pressure;BME280_temperature;BME280_humidity;BME280_pressure;Samples;Min_cycle;Max_cycle;Signal;HPM_P1;HPM_P2
2022/09/26 00:02:25;;;;;;;3.83;3.53;;;13.10;99.90;;;;;;5081036;28;20545;-72
2022/09/26 00:04:52;;;;;;;4.00;3.70;;;13.00;99.90;;;;;;5080724;28;20570;-72
2022/09/26 00:07:19;;;;;;;5.90;3.70;;;13.00;99.90;;;;;;5082440;28;20478;-72
2022/09/26 00:09:46;;;;;;;4.77;3.87;;;13.00;99.90;;;;;;5084194;28;20469;-72
2022/09/26 00:12:13;;;;;;;4.20;3.80;;;13.00;99.90;;;;;;5082070;28;20454;-72
2022/09/26 00:14:40;;;;;;;5.23;3.37;;;13.00;99.90;;;;;;5082216;28;20468;-72
2022/09/26 00:17:08;;;;;;;5.60;3.50;;;13.00;99.90;;;;;;5083755;28;20549;-72
2022/09/26 00:19:34;;;;;;;4.43;3.57;;;12.90;99.90;;;;;;5081715;28;20468;-71
2022/09/26 00:22:01;;;;;;;3.63;3.13;;;12.90;99.90;;;;;;5084707;28;20534;-72
2022/09/26 00:24:29;;;;;;;4.93;3.40;;;12.80;99.90;;;;;;5085132;28;20522;-72
2022/09/26 00:26:56;;;;;;;5.73;3.63;;;12.80;99.90;;;;;;5083003;28;21031;-72
2022/09/26 00:29:23;;;;;;;4.17;3.77;;;12.80;99.90;;;;;;5082567;28;20533;-72
2022/09/26 00:31:51;;;;;;;6.40;3.80;;;12.80;99.90;;;;;;5080720;28;20848;-72
2022/09/26 00:34:20;;;;;;;3.60;3.30;;;12.90;99.90;;;;;;5081874;28;20844;-72
2022/09/26 00:36:47;;;;;;;5.33;3.80;;;12.90;99.90;;;;;;5085656;28;20446;-72
2022/09/26 00:39:15;;;;;;;5.03;4.10;;;12.80;99.90;;;;;;5083119;28;20497;-72
2022/09/26 00:41:43;;;;;;;7.00;3.37;;;12.80;99.90;;;;;;5083425;28;20965;-72
2022/09/26 00:44:34;;;;;;;4.80;3.50;;;12.90;99.90;;;;;;5080249;28;20454;-72
2022/09/26 00:47:02;;;;;;;3.50;3.20;;;12.90;99.90;;;;;;5084041;28;20514;-72
2022/09/26 00:49:33;;;;;;;7.20;3.10;;;12.90;99.90;;;;;;5083695;28;20518;-72
2022/09/26 00:52:05;;;;;;;4.27;3.50;;;12.90;99.90;;;;;;5078484;28;20449;-71
2022/09/26 00:54:34;;;;;;;7.30;3.97;;;12.90;99.90;;;;;;5075211;28;20792;-71
2022/09/26 00:57:06;;;;;;;5.20;3.33;;;12.90;99.90;;;;;;5075118;28;20541;-71
2022/09/26 00:59:36;;;;;;;4.87;3.30;;;12.80;99.90;;;;;;5074848;28;20504;-71
2022/09/26 01:02:03;;;;;;;9.07;3.60;;;12.80;99.90;;;;;;5074883;28;20455;-71
2022/09/26 01:04:39;;;;;;;4.10;3.37;;;12.80;99.90;;;;;;5080107;28;20481;-72
2022/09/26 01:07:11;;;;;;;6.13;3.67;;;12.70;99.90;;;;;;5079903;28;20509;-72
2022/09/26 01:09:39;;;;;;;5.57;3.57;;;12.70;99.90;;;;;;5082656;28;20523;-72
2022/09/26 01:12:07;;;;;;;6.77;3.97;;;12.70;99.90;;;;;;5081655;28;20826;-72
2022/09/26 01:14:37;;;;;;;5.57;4.47;;;12.70;99.90;;;;;;5079707;28;20451;-71
2022/09/26 01:17:04;;;;;;;4.50;3.70;;;12.60;99.90;;;;;;5074879;28;20459;-71
2022/09/26 01:19:40;;;;;;;6.00;4.20;;;12.60;99.90;;;;;;5074397;28;20460;-71
2022/09/26 01:22:32;;;;;;;6.93;3.70;;;12.70;99.90;;;;;;5074971;28;20468;-71
2022/09/26 01:25:11;;;;;;;7.10;4.10;;;12.60;99.90;;;;;;5081204;28;20458;-71
2022/09/26 01:28:00;;;;;;;9.00;4.80;;;12.60;99.90;;;;;;5081318;28;20462;-71
2022/09/26 01:30:33;;;;;;;4.97;3.87;;;12.60;99.90;;;;;;5081054;28;20458;-71
2022/09/26 01:33:35;;;;;;;4.17;3.70;;;12.60;99.90;;;;;;5081734;28;20831;-71
2022/09/26 01:36:22;;;;;;;6.10;4.20;;;12.60;99.90;;;;;;5080964;28;20926;-71
2022/09/26 01:39:01;;;;;;;6.67;3.90;;;12.60;99.90;;;;;;5081359;28;20779;-71
2022/09/26 01:41:44;;;;;;;4.17;3.77;;;12.70;99.90;;;;;;5081709;28;20438;-71
2022/09/26 01:44:26;;;;;;;9.43;4.13;;;12.70;99.90;;;;;;5081349;28;20533;-71
2022/09/26 01:46:58;;;;;;;4.00;3.60;;;12.60;99.90;;;;;;5080985;28;20466;-71
2022/09/26 01:49:30;;;;;;;6.93;3.70;;;12.60;99.90;;;;;;5081230;28;20442;-71
2022/09/26 01:52:01;;;;;;;5.70;4.10;;;12.70;99.90;;;;;;5080764;28;20521;-71
2022/09/26 01:54:34;;;;;;;5.60;3.53;;;12.70;99.90;;;;;;5081376;28;20453;-71
2022/09/26 01:57:04;;;;;;;7.13;3.90;;;12.70;99.90;;;;;;5080633;28;20891;-71
2022/09/26 01:59:37;;;;;;;8.20;4.10;;;12.70;99.90;;;;;;5081342;28;20885;-71
2022/09/26 02:02:10;;;;;;;5.80;4.10;;;12.70;99.90;;;;;;5080625;28;20438;-71
2022/09/26 02:04:41;;;;;;;6.67;3.93;;;12.70;99.90;;;;;;5080826;28;20486;-71
2022/09/26 02:07:12;;;;;;;4.60;3.37;;;12.70;99.90;;;;;;5081293;28;20492;-71
2022/09/26 02:09:43;;;;;;;3.53;3.20;;;12.60;99.90;;;;;;5080963;28;20442;-71
2022/09/26 02:12:15;;;;;;;6.50;3.90;;;12.60;99.90;;;;;;5081042;28;20458;-71
2022/09/26 02:14:44;;;;;;;6.70;3.47;;;12.60;99.90;;;;;;5080816;28;20520;-70
2022/09/26 02:17:16;;;;;;;4.70;3.53;;;12.60;99.90;;;;;;5080831;28;20959;-69
2022/09/26 02:19:51;;;;;;;5.60;3.53;;;12.60;99.90;;;;;;5081159;28;20442;-70
2022/09/26 02:22:18;;;;;;;11.60;4.20;;;12.60;99.90;;;;;;5080719;28;20448;-73
2022/09/26 02:24:44;;;;;;;7.37;5.37;;;12.60;99.90;;;;;;5081121;28;20922;-73
2022/09/26 02:27:12;;;;;;;6.40;4.27;;;12.60;99.90;;;;;;5081795;28;20478;-73
2022/09/26 02:29:39;;;;;;;5.87;4.10;;;12.60;99.90;;;;;;5080978;28;20504;-73
2022/09/26 02:32:14;;;;;;;5.60;3.23;;;12.50;99.90;;;;;;5083389;28;20453;-72
2022/09/26 02:34:44;;;;;;;9.00;3.50;;;12.50;99.90;;;;;;5085603;28;20758;-70
2022/09/26 02:37:13;;;;;;;6.43;3.87;;;12.50;99.90;;;;;;5078338;28;20466;-71
2022/09/26 02:39:41;;;;;;;4.30;3.60;;;12.50;99.90;;;;;;5077570;28;20462;-71
2022/09/26 02:42:16;;;;;;;4.57;3.50;;;12.50;99.90;;;;;;5077899;28;20461;-71
2022/09/26 02:44:58;;;;;;;5.70;3.50;;;12.50;99.90;;;;;;5077671;28;20790;-70
2022/09/26 02:47:45;;;;;;;5.57;3.90;;;12.50;99.90;;;;;;5077511;28;20557;-71
2022/09/26 02:50:24;;;;;;;5.60;4.20;;;12.50;99.90;;;;;;5077483;28;20448;-71
2022/09/26 02:53:00;;;;;;;5.43;3.67;;;12.50;99.90;;;;;;5079818;28;20776;-72
2022/09/26 02:55:36;;;;;;;4.13;3.37;;;12.50;99.90;;;;;;5083744;28;20438;-72
2022/09/26 02:58:10;;;;;;;5.17;3.80;;;12.50;99.90;;;;;;5083380;28;20449;-72
2022/09/26 03:00:48;;;;;;;6.60;4.30;;;12.50;99.90;;;;;;5080603;28;20445;-72
2022/09/26 03:03:22;;;;;;;5.13;3.90;;;12.50;99.90;;;;;;5076937;28;20481;-72
2022/09/26 03:05:54;;;;;;;6.00;4.40;;;12.50;99.90;;;;;;5076853;28;20923;-72
2022/09/26 03:08:24;;;;;;;5.17;4.63;;;12.50;99.90;;;;;;5077698;28;20467;-71
2022/09/26 03:10:53;;;;;;;5.07;4.33;;;12.60;99.90;;;;;;5077095;28;20464;-71
2022/09/26 03:13:21;;;;;;;8.20;4.60;;;12.60;99.90;;;;;;5077656;28;20454;-71
2022/09/26 03:15:53;;;;;;;4.87;4.37;;;12.60;99.90;;;;;;5077892;28;20790;-72
2022/09/26 03:18:23;;;;;;;5.50;4.57;;;12.60;99.90;;;;;;5082147;28;20506;-71
2022/09/26 03:20:53;;;;;;;6.90;4.73;;;12.70;99.90;;;;;;5080966;28;20496;-72
2022/09/26 03:23:22;;;;;;;15.27;5.70;;;12.60;99.90;;;;;;5081323;28;20447;-72
2022/09/26 03:26:00;;;;;;;6.27;4.50;;;12.70;99.90;;;;;;5082232;28;20458;-72
2022/09/26 03:28:27;;;;;;;6.30;5.20;;;12.70;99.90;;;;;;5083470;28;20538;-72
2022/09/26 03:30:54;;;;;;;5.40;4.83;;;12.60;99.90;;;;;;5079932;28;20464;-70
2022/09/26 03:33:21;;;;;;;5.87;4.30;;;12.60;99.90;;;;;;5076719;28;20629;-70
2022/09/26 03:35:48;;;;;;;7.47;4.70;;;12.60;99.90;;;;;;5076695;28;20454;-71
2022/09/26 03:38:16;;;;;;;8.20;4.87;;;12.60;99.90;;;;;;5076608;28;20457;-71
2022/09/26 03:40:45;;;;;;;6.77;4.67;;;12.60;99.90;;;;;;5076699;28;20520;-71
2022/09/26 03:43:12;;;;;;;11.77;5.17;;;12.60;99.90;;;;;;5077434;28;20938;-70
2022/09/26 03:45:39;;;;;;;8.17;4.60;;;12.60;99.90;;;;;;5076134;28;20465;-71
2022/09/26 03:48:15;;;;;;;8.33;5.23;;;12.60;99.90;;;;;;5076334;28;20573;-71
2022/09/26 03:50:42;;;;;;;5.90;4.33;;;12.60;99.90;;;;;;5080060;28;20464;-71
2022/09/26 03:53:09;;;;;;;11.30;4.57;;;12.60;99.90;;;;;;5090403;28;20455;-70
2022/09/26 03:55:37;;;;;;;6.83;4.50;;;12.60;99.90;;;;;;5096385;28;20457;-71
2022/09/26 03:58:04;;;;;;;8.33;4.10;;;12.60;99.90;;;;;;5096318;28;20453;-71
2022/09/26 04:00:32;;;;;;;4.77;3.30;;;12.60;99.90;;;;;;5095945;28;20568;-71
2022/09/26 04:03:01;;;;;;;3.90;3.27;;;12.50;99.90;;;;;;5095744;28;20902;-70
2022/09/26 04:05:28;;;;;;;8.53;3.70;;;12.50;99.90;;;;;;5096087;28;20815;-70
2022/09/26 04:07:55;;;;;;;5.50;4.10;;;12.50;99.90;;;;;;5096091;28;20481;-71
2022/09/26 04:10:23;;;;;;;4.93;4.27;;;12.50;99.90;;;;;;5095843;28;20931;-71
2022/09/26 04:12:51;;;;;;;12.10;5.90;;;12.50;99.90;;;;;;5095736;28;20460;-71
2022/09/26 04:15:18;;;;;;;7.53;4.50;;;12.50;99.90;;;;;;5095951;28;20560;-71
2022/09/26 04:17:45;;;;;;;7.40;4.20;;;12.60;99.90;;;;;;5095702;28;20449;-71
2022/09/26 04:20:12;;;;;;;8.07;4.90;;;12.60;99.90;;;;;;5095523;28;20489;-71
2022/09/26 04:22:41;;;;;;;7.30;5.63;;;12.60;99.90;;;;;;5095500;28;20453;-71
2022/09/26 04:25:09;;;;;;;8.70;5.73;;;12.60;99.90;;;;;;5096507;28;20454;-71
2022/09/26 04:27:36;;;;;;;11.10;6.37;;;12.60;99.90;;;;;;5098997;28;20481;-71
2022/09/26 04:30:06;;;;;;;9.60;5.80;;;12.50;99.90;;;;;;5098581;28;20484;-71
2022/09/26 04:32:32;;;;;;;6.37;5.77;;;12.50;99.90;;;;;;5098145;28;20460;-71
2022/09/26 04:34:59;;;;;;;11.40;6.13;;;12.50;99.90;;;;;;5100088;28;20548;-71
2022/09/26 04:37:26;;;;;;;7.93;6.37;;;12.50;99.90;;;;;;5095604;28;20453;-71
2022/09/26 04:39:53;;;;;;;9.90;6.70;;;12.50;99.90;;;;;;5095330;28;20453;-71
2022/09/26 04:42:20;;;;;;;7.20;5.80;;;12.50;99.90;;;;;;5095376;28;20839;-71
2022/09/26 04:44:47;;;;;;;7.10;5.70;;;12.50;99.90;;;;;;5095189;28;20469;-71
2022/09/26 04:47:16;;;;;;;6.83;4.27;;;12.50;99.90;;;;;;5095198;28;20454;-71
2022/09/26 04:49:43;;;;;;;6.23;4.10;;;12.40;99.90;;;;;;5086666;28;20961;-71
2022/09/26 04:52:10;;;;;;;7.47;4.50;;;12.40;99.90;;;;;;5088318;28;20454;-71
2022/09/26 04:54:37;;;;;;;8.33;4.23;;;12.40;99.90;;;;;;5074614;28;20545;-71
2022/09/26 04:57:04;;;;;;;6.90;3.30;;;12.30;99.90;;;;;;5074972;28;20835;-71
2022/09/26 04:59:31;;;;;;;10.43;3.60;;;12.30;99.90;;;;;;5075702;28;20456;-72
2022/09/26 05:01:58;;;;;;;6.43;3.80;;;12.20;99.90;;;;;;5081469;28;20469;-73
2022/09/26 05:04:26;;;;;;;5.50;3.83;;;12.20;99.90;;;;;;5084797;28;20473;-73
2022/09/26 05:06:56;;;;;;;5.23;3.40;;;12.10;99.90;;;;;;5084569;28;20493;-73
2022/09/26 05:09:23;;;;;;;6.57;3.43;;;12.10;99.90;;;;;;5080521;28;20478;-73
2022/09/26 05:11:50;;;;;;;5.17;3.93;;;12.10;99.90;;;;;;5081032;28;20927;-72
2022/09/26 05:14:17;;;;;;;5.00;3.60;;;12.10;99.90;;;;;;5079976;28;20469;-72
2022/09/26 05:16:43;;;;;;;5.43;3.90;;;12.10;99.90;;;;;;5080783;28;20458;-72
2022/09/26 05:19:10;;;;;;;5.80;3.73;;;12.00;99.90;;;;;;5082850;28;20494;-73
2022/09/26 05:21:38;;;;;;;5.67;4.30;;;12.00;99.90;;;;;;5081651;28;20507;-72
2022/09/26 05:26:52;;;;;;;4.23;3.77;;;12.00;99.90;;;;;;5083141;28;20449;-73
2022/09/26 05:29:19;;;;;;;6.57;4.20;;;12.00;99.90;;;;;;5080979;28;20569;-73
2022/09/26 05:31:46;;;;;;;7.20;4.20;;;12.00;99.90;;;;;;5092846;28;20495;-72
2022/09/26 05:34:14;;;;;;;8.80;4.57;;;12.00;99.90;;;;;;5104503;28;20453;-73
2022/09/26 05:36:42;;;;;;;7.20;5.43;;;12.00;99.90;;;;;;5103541;28;20463;-73
2022/09/26 05:40:55;;;;;;;4.73;3.67;;;12.00;99.90;;;;;;5100338;28;20910;-73
2022/09/26 05:41:57;;;;;;;6.90;4.33;;;12.00;99.90;;;;;;5099859;28;20447;-71
2022/09/26 05:44:24;;;;;;;7.37;4.73;;;12.00;99.90;;;;;;5100302;28;20457;-72
2022/09/26 05:46:51;;;;;;;5.70;4.40;;;12.00;99.90;;;;;;5101045;28;20472;-72
2022/09/26 05:49:18;;;;;;;7.27;4.60;;;12.00;99.90;;;;;;5100000;28;20487;-72
2022/09/26 05:51:46;;;;;;;6.00;4.70;;;12.10;99.90;;;;;;5100315;28;20536;-72
2022/09/26 05:54:13;;;;;;;8.37;4.17;;;12.10;99.90;;;;;;5099130;28;20454;-72
2022/09/26 05:56:40;;;;;;;6.90;5.03;;;12.20;99.90;;;;;;5100241;28;20836;-72
2022/09/26 05:59:07;;;;;;;9.63;5.17;;;12.20;99.90;;;;;;5101253;28;20453;-72
2022/09/26 06:01:34;;;;;;;10.30;5.83;;;12.20;99.90;;;;;;5100274;28;20850;-72
2022/09/26 06:04:02;;;;;;;7.37;5.03;;;12.20;99.90;;;;;;5100938;28;20481;-71
2022/09/26 06:06:29;;;;;;;10.63;4.60;;;12.20;99.90;;;;;;5098016;28;20468;-71
2022/09/26 06:08:58;;;;;;;4.43;4.03;;;12.30;99.90;;;;;;5100268;28;20552;-72
2022/09/26 06:11:26;;;;;;;9.90;4.63;;;12.30;99.90;;;;;;5103074;28;20485;-72
2022/09/26 06:13:54;;;;;;;4.63;4.23;;;12.30;99.90;;;;;;5104700;28;20457;-72
2022/09/26 06:16:21;;;;;;;9.53;5.13;;;12.30;99.90;;;;;;5103742;28;20911;-72
2022/09/26 06:18:51;;;;;;;4.70;4.30;;;12.30;99.90;;;;;;5102819;28;20449;-72
2022/09/26 06:21:19;;;;;;;8.17;4.67;;;12.30;99.90;;;;;;5099145;28;20475;-71
2022/09/26 06:23:46;;;;;;;5.40;4.30;;;12.30;99.90;;;;;;5098119;28;20457;-71
2022/09/26 06:26:18;;;;;;;7.63;4.67;;;12.40;99.90;;;;;;5097983;28;20844;-71
2022/09/26 06:28:45;;;;;;;6.33;3.37;;;12.40;99.90;;;;;;5098134;28;20804;-72
2022/09/26 06:31:15;;;;;;;5.53;4.47;;;12.40;99.90;;;;;;5097939;28;20453;-71
2022/09/26 06:33:42;;;;;;;7.80;4.10;;;12.50;99.90;;;;;;5098118;28;20784;-71
2022/09/26 06:36:11;;;;;;;7.53;4.47;;;12.60;99.90;;;;;;5097714;28;20764;-71
2022/09/26 06:38:38;;;;;;;5.87;3.83;;;12.70;99.90;;;;;;5098255;28;20862;-71
2022/09/26 06:41:06;;;;;;;16.30;4.03;;;12.70;99.90;;;;;;5097968;28;20453;-72
2022/09/26 06:43:35;;;;;;;7.90;4.17;;;12.80;99.90;;;;;;5099158;28;20480;-72
2022/09/26 06:46:02;;;;;;;6.33;4.23;;;12.80;99.90;;;;;;5098003;28;20528;-71
2022/09/26 06:48:28;;;;;;;4.80;3.40;;;12.90;99.90;;;;;;5097758;28;20487;-71
2022/09/26 06:50:58;;;;;;;9.43;5.23;;;13.00;99.90;;;;;;5097993;28;20548;-71
2022/09/26 06:53:26;;;;;;;5.77;4.17;;;13.00;99.90;;;;;;5098015;28;20468;-73
2022/09/26 06:55:53;;;;;;;5.37;4.30;;;13.10;99.90;;;;;;5097516;28;20501;-73
2022/09/26 06:58:19;;;;;;;4.60;4.20;;;13.20;99.90;;;;;;5097821;28;20464;-73
2022/09/26 07:00:48;;;;;;;5.97;4.30;;;13.30;99.90;;;;;;5097922;28;20454;-73
2022/09/26 07:03:15;;;;;;;5.23;4.47;;;13.40;99.90;;;;;;5097146;28;20513;-72
2022/09/26 07:05:42;;;;;;;4.37;3.33;;;13.40;99.90;;;;;;5096819;28;20910;-73
2022/09/26 07:08:09;;;;;;;6.33;3.60;;;13.40;99.90;;;;;;5097094;28;20465;-72
2022/09/26 07:10:36;;;;;;;5.00;4.00;;;13.40;99.90;;;;;;5097173;28;20449;-73
2022/09/26 07:13:05;;;;;;;6.70;3.70;;;13.50;99.90;;;;;;5102513;28;20515;-72
2022/09/26 07:15:33;;;;;;;6.87;4.60;;;13.50;99.90;;;;;;5102796;28;20467;-71
2022/09/26 07:18:03;;;;;;;6.67;4.50;;;13.60;99.90;;;;;;5104052;28;20457;-71
2022/09/26 07:20:36;;;;;;;6.50;4.57;;;13.60;99.90;;;;;;5104949;28;20492;-72
2022/09/26 07:23:04;;;;;;;5.90;4.30;;;13.60;99.90;;;;;;5102866;28;20503;-72
2022/09/26 07:25:32;;;;;;;7.97;5.40;;;13.60;99.90;;;;;;5104435;28;20485;-71
2022/09/26 07:27:59;;;;;;;7.77;5.80;;;13.60;99.90;;;;;;5102014;28;20449;-72
2022/09/26 07:30:27;;;;;;;8.00;5.37;;;13.60;99.90;;;;;;5101078;28;20512;-74
2022/09/26 07:32:59;;;;;;;6.37;5.03;;;13.60;99.90;;;;;;5104956;28;20457;-73
2022/09/26 07:35:31;;;;;;;6.80;5.70;;;13.70;99.90;;;;;;5104933;28;20784;-73
2022/09/26 07:37:58;;;;;;;7.83;5.07;;;13.70;99.90;;;;;;5106441;28;20499;-73
2022/09/26 07:40:26;;;;;;;10.40;6.00;;;13.70;99.90;;;;;;5100241;28;20519;-73
2022/09/26 07:42:53;;;;;;;9.83;5.10;;;13.70;99.90;;;;;;5099517;28;20454;-72
2022/09/26 07:50:09;;;;;;;7.93;5.03;;;13.80;99.90;;;;;;5099350;28;20485;-72
2022/09/26 07:51:00;;;;;;;8.40;4.43;;;13.90;99.90;;;;;;5100631;28;20432;-73
2022/09/26 07:53:28;;;;;;;11.53;4.50;;;14.00;99.90;;;;;;5098220;28;20434;-73
2022/09/26 07:56:09;;;;;;;4.90;3.67;;;14.10;99.90;;;;;;5099322;28;20473;-72
2022/09/26 07:58:54;;;;;;;5.97;3.27;;;14.10;99.90;;;;;;5097976;28;20502;-73
2022/09/26 08:01:21;;;;;;;6.83;3.13;;;14.10;99.90;;;;;;5095445;28;20511;-73
2022/09/26 08:03:48;;;;;;;6.90;3.30;;;14.10;99.90;;;;;;5096204;28;20513;-73
2022/09/26 08:06:19;;;;;;;4.27;2.80;;;14.10;99.90;;;;;;5096027;28;20457;-73
2022/09/26 08:08:46;;;;;;;5.77;2.70;;;14.10;99.90;;;;;;5095858;28;20952;-73
2022/09/26 08:11:15;;;;;;;4.97;2.50;;;14.10;99.90;;;;;;5096378;28;20464;-73
2022/09/26 08:13:42;;;;;;;2.70;2.40;;;14.10;99.90;;;;;;5096356;28;20831;-73
2022/09/26 08:16:10;;;;;;;3.30;2.70;;;14.10;99.90;;;;;;5096106;28;20540;-73
2022/09/26 08:18:45;;;;;;;3.97;2.30;;;14.10;99.90;;;;;;5096133;28;20798;-73
2022/09/26 08:21:12;;;;;;;2.30;2.00;;;14.20;99.90;;;;;;5099002;28;20472;-74
2022/09/26 08:23:40;;;;;;;6.67;3.03;;;14.20;99.90;;;;;;5105573;28;20453;-74
2022/09/26 08:26:07;;;;;;;4.40;2.33;;;14.30;99.90;;;;;;5105056;28;20468;-73
2022/09/26 08:28:35;;;;;;;5.50;2.10;;;14.40;99.90;;;;;;5103209;28;20995;-73
2022/09/26 08:31:02;;;;;;;3.70;2.40;;;14.50;99.90;;;;;;5104702;28;20453;-73
2022/09/26 08:33:33;;;;;;;5.33;2.50;;;14.60;99.90;;;;;;5102926;28;20514;-74
2022/09/26 08:36:03;;;;;;;4.30;2.50;;;14.70;99.90;;;;;;5103150;28;20467;-74
2022/09/26 08:38:30;;;;;;;5.40;2.77;;;14.70;99.90;;;;;;5103333;28;20528;-74
2022/09/26 08:41:10;;;;;;;3.33;2.00;;;14.80;99.90;;;;;;5103397;28;21028;-74
2022/09/26 08:43:48;;;;;;;2.67;1.97;;;14.80;99.90;;;;;;5102178;28;20487;-74
2022/09/26 08:46:40;;;;;;;4.27;2.20;;;14.90;99.90;;;;;;5104924;28;20426;-74
2022/09/26 08:49:29;;;;;;;4.53;2.77;;;14.90;99.90;;;;;;5105802;28;20472;-74
2022/09/26 08:51:59;;;;;;;6.00;2.60;;;15.00;99.90;;;;;;5106598;28;20434;-74
2022/09/26 08:54:34;;;;;;;5.03;2.53;;;15.10;99.90;;;;;;5105637;28;20452;-74
2022/09/26 08:57:07;;;;;;;3.40;2.30;;;15.10;99.90;;;;;;5104239;28;20929;-74
2022/09/26 08:59:40;;;;;;;3.40;1.90;;;15.10;99.90;;;;;;5104561;28;20784;-74
2022/09/26 09:02:14;;;;;;;2.63;2.00;;;15.10;99.90;;;;;;5103217;28;20479;-74
2022/09/26 09:04:49;;;;;;;6.77;2.60;;;15.10;99.90;;;;;;5101107;28;20515;-74
2022/09/26 09:07:22;;;;;;;2.90;2.53;;;15.10;99.90;;;;;;5101338;28;20778;-74
2022/09/26 09:09:51;;;;;;;3.50;1.90;;;15.30;99.90;;;;;;5102291;28;20487;-74
2022/09/26 09:12:28;;;;;;;4.33;1.90;;;15.40;99.90;;;;;;5103223;28;20514;-73
2022/09/26 09:15:14;;;;;;;4.43;2.00;;;15.60;99.90;;;;;;5101815;28;20739;-73
2022/09/26 09:17:51;;;;;;;4.30;2.00;;;15.90;99.90;;;;;;5102736;28;20832;-74
2022/09/26 09:20:29;;;;;;;5.93;1.57;;;16.00;99.90;;;;;;5102149;28;20506;-75
2022/09/26 09:23:14;;;;;;;4.20;1.73;;;16.00;99.90;;;;;;5105402;28;20455;-73
2022/09/26 09:25:48;;;;;;;5.13;1.87;;;16.00;99.90;;;;;;5104131;28;20433;-73
2022/09/26 09:28:31;;;;;;;2.10;1.90;;;15.90;99.90;;;;;;5103731;28;20520;-74
2022/09/26 09:31:00;;;;;;;3.20;1.30;;;15.80;99.90;;;;;;5104562;28;20461;-73
2022/09/26 09:33:34;;;;;;;1.70;1.20;;;15.70;99.90;;;;;;5101172;28;20542;-77
2022/09/26 09:36:06;;;;;;;1.40;1.20;;;15.70;99.90;;;;;;5103117;28;20505;-73
2022/09/26 09:38:37;;;;;;;2.57;1.30;;;15.70;99.90;;;;;;5103850;28;20530;-74
2022/09/26 09:41:09;;;;;;;1.90;1.20;;;15.70;99.90;;;;;;5103306;28;20446;-74
2022/09/26 09:43:42;;;;;;;3.73;1.40;;;15.70;99.90;;;;;;5104563;28;20946;-74
2022/09/26 09:46:17;;;;;;;2.03;0.90;;;15.70;99.90;;;;;;5109945;28;20445;-73
2022/09/26 09:48:48;;;;;;;1.67;1.20;;;15.80;99.90;;;;;;5109018;28;20523;-74
2022/09/26 09:51:29;;;;;;;2.73;1.40;;;15.80;99.90;;;;;;5105512;28;20563;-72
2022/09/26 09:54:12;;;;;;;2.63;1.10;;;15.80;99.90;;;;;;5108440;28;20555;-73
2022/09/26 09:56:47;;;;;;;3.47;1.17;;;15.80;99.90;;;;;;5107566;28;20449;-73
2022/09/26 09:59:32;;;;;;;1.73;1.00;;;15.70;99.90;;;;;;5108216;28;20469;-72
2022/09/26 10:02:18;;;;;;;1.50;1.20;;;15.80;99.90;;;;;;5107750;28;20469;-73
2022/09/26 10:04:51;;;;;;;1.40;0.83;;;15.80;99.90;;;;;;5104555;28;20544;-73
2022/09/26 10:07:22;;;;;;;2.03;1.10;;;15.90;99.90;;;;;;5106116;28;20524;-73
2022/09/26 10:09:52;;;;;;;2.30;1.20;;;16.10;99.90;;;;;;5105667;28;20487;-70
2022/09/26 10:12:35;;;;;;;3.10;1.30;;;16.20;99.90;;;;;;5107520;28;20449;-74
2022/09/26 10:15:06;;;;;;;4.23;1.20;;;16.30;99.90;;;;;;5099571;28;20438;-71
2022/09/26 10:17:34;;;;;;;2.37;1.03;;;16.50;99.90;;;;;;5097802;28;20518;-71
2022/09/26 10:20:01;;;;;;;2.07;1.47;;;16.60;99.90;;;;;;5099388;28;20454;-73
2022/09/26 10:22:36;;;;;;;2.57;1.30;;;16.60;99.90;;;;;;5098661;28;20761;-72
2022/09/26 10:25:07;;;;;;;2.03;1.20;;;16.70;99.90;;;;;;5099918;28;20799;-73
2022/09/26 10:27:37;;;;;;;3.63;1.40;;;16.70;99.90;;;;;;5099910;28;20437;-72
2022/09/26 10:30:29;;;;;;;3.03;1.27;;;16.70;99.90;;;;;;5098678;28;20526;-71
2022/09/26 10:32:58;;;;;;;3.00;1.27;;;16.70;99.90;;;;;;5098796;28;20443;-71
2022/09/26 10:35:28;;;;;;;2.40;1.40;;;16.70;99.90;;;;;;5098447;28;20909;-71
2022/09/26 10:38:01;;;;;;;1.60;1.37;;;16.60;99.90;;;;;;5098198;28;20548;-70
2022/09/26 10:40:44;;;;;;;4.37;1.20;;;16.60;99.90;;;;;;5097639;28;20455;-72
2022/09/26 10:43:27;;;;;;;1.93;1.20;;;16.70;99.90;;;;;;5098079;28;20463;-72
2022/09/26 10:46:01;;;;;;;3.00;1.37;;;16.90;99.90;;;;;;5098067;28;20438;-72
2022/09/26 10:48:46;;;;;;;3.20;1.80;;;17.00;99.90;;;;;;5098409;28;20953;-71
2022/09/26 10:51:21;;;;;;;3.17;1.63;;;17.00;99.90;;;;;;5098651;28;20472;-71
2022/09/26 10:53:52;;;;;;;2.03;1.40;;;17.00;99.90;;;;;;5099003;28;20440;-71
2022/09/26 10:56:26;;;;;;;3.87;1.30;;;17.00;99.90;;;;;;5097246;28;20816;-70
2022/09/26 10:58:58;;;;;;;2.50;1.40;;;17.00;99.90;;;;;;5097677;28;20448;-71
2022/09/26 11:01:30;;;;;;;3.83;1.30;;;16.90;99.90;;;;;;5097410;28;20434;-71
2022/09/26 11:04:00;;;;;;;2.77;1.80;;;16.90;99.90;;;;;;5097274;28;20481;-73
2022/09/26 11:06:31;;;;;;;5.03;1.53;;;16.80;99.90;;;;;;5096993;28;20437;-71
2022/09/26 11:09:01;;;;;;;4.63;1.67;;;16.80;99.90;;;;;;5097410;28;20790;-71
2022/09/26 11:11:32;;;;;;;2.03;1.57;;;16.70;99.90;;;;;;5097205;28;20973;-77
2022/09/26 11:14:02;;;;;;;6.00;1.53;;;16.70;99.90;;;;;;5097283;28;20468;-71
2022/09/26 11:16:37;;;;;;;5.30;1.37;;;16.60;99.90;;;;;;5097276;28;20506;-71
2022/09/26 11:19:12;;;;;;;1.60;1.20;;;16.60;99.90;;;;;;5097161;28;20776;-71
2022/09/26 11:21:42;;;;;;;2.30;1.30;;;16.60;99.90;;;;;;5096818;28;20529;-70
2022/09/26 11:24:15;;;;;;;4.97;1.03;;;16.60;99.90;;;;;;5096932;28;20456;-69
2022/09/26 11:26:54;;;;;;;1.87;1.00;;;16.70;99.90;;;;;;5098183;28;20484;-70
2022/09/26 11:29:29;;;;;;;2.23;1.20;;;16.70;99.90;;;;;;5096807;28;20441;-71
2022/09/26 11:31:58;;;;;;;2.70;1.00;;;16.80;99.90;;;;;;5097067;28;20437;-70
2022/09/26 11:34:28;;;;;;;2.80;1.23;;;16.90;99.90;;;;;;5096496;28;20484;-71
2022/09/26 11:37:29;;;;;;;2.57;1.20;;;16.90;99.90;;;;;;5104488;28;20536;-74
2022/09/26 11:40:16;;;;;;;2.07;1.20;;;17.10;99.90;;;;;;5108734;28;20429;-73
2022/09/26 11:43:07;;;;;;;2.30;1.17;;;17.20;99.90;;;;;;5106372;28;20434;-72
2022/09/26 11:45:45;;;;;;;2.50;1.40;;;17.30;99.90;;;;;;5105064;28;20806;-73
2022/09/26 11:48:37;;;;;;;2.87;1.00;;;17.50;99.90;;;;;;5105986;28;20465;-73
2022/09/26 11:51:15;;;;;;;4.03;1.30;;;17.70;99.90;;;;;;5106121;28;20465;-73
2022/09/26 11:54:05;;;;;;;1.93;1.30;;;17.80;99.90;;;;;;5107753;28;20444;-74
2022/09/26 11:56:43;;;;;;;2.90;1.10;;;17.80;99.90;;;;;;5107109;28;20509;-73
2022/09/26 11:59:30;;;;;;;3.40;1.10;;;17.80;99.90;;;;;;5106510;28;20512;-74
2022/09/26 12:02:14;;;;;;;4.87;1.47;;;17.80;99.90;;;;;;5106649;28;20437;-74
2022/09/26 12:05:00;;;;;;;2.00;1.60;;;17.80;99.90;;;;;;5107322;28;20548;-72
2022/09/26 12:07:36;;;;;;;2.93;1.40;;;17.70;99.90;;;;;;5108335;28;20468;-73
2022/09/26 12:10:18;;;;;;;1.70;1.20;;;17.60;99.90;;;;;;5106636;28;20461;-74
2022/09/26 12:12:56;;;;;;;4.07;1.50;;;17.60;99.90;;;;;;5107067;28;20436;-73
2022/09/26 12:15:30;;;;;;;1.50;1.20;;;17.50;99.90;;;;;;5109135;28;20433;-73
2022/09/26 12:18:10;;;;;;;2.60;1.43;;;17.50;99.90;;;;;;5109052;28;20437;-73
2022/09/26 12:21:02;;;;;;;1.67;1.10;;;17.70;99.90;;;;;;5108498;28;20453;-73
2022/09/26 12:23:36;;;;;;;3.07;1.67;;;18.90;99.90;;;;;;5109908;28;20504;-74
2022/09/26 12:26:14;;;;;;;4.70;1.40;;;20.50;99.90;;;;;;5108125;28;20529;-74
2022/09/26 12:29:06;;;;;;;2.73;1.50;;;21.70;99.90;;;;;;5108600;28;20905;-74
2022/09/26 12:31:47;;;;;;;2.23;1.30;;;22.30;99.90;;;;;;5104945;28;20480;-73
2022/09/26 12:34:30;;;;;;;3.37;1.17;;;21.90;99.90;;;;;;5089256;28;20441;-72
2022/09/26 12:37:13;;;;;;;3.30;1.20;;;21.10;99.90;;;;;;5103815;28;20442;-73
2022/09/26 12:40:13;;;;;;;3.93;1.47;;;20.40;99.90;;;;;;5106941;28;20437;-72
2022/09/26 12:43:12;;;;;;;2.43;1.60;;;19.50;99.90;;;;;;5101081;28;20524;-75
2022/09/26 12:46:03;;;;;;;3.80;1.60;;;18.80;99.90;;;;;;5099493;28;20441;-72
2022/09/26 12:48:48;;;;;;;2.80;1.80;;;18.30;99.90;;;;;;5107852;28;20859;-72
2022/09/26 12:51:26;;;;;;;2.47;1.33;;;18.10;99.90;;;;;;5106266;28;20462;-72
2022/09/26 12:54:25;;;;;;;2.00;1.40;;;17.90;99.90;;;;;;5109871;28;20849;-73
2022/09/26 12:56:58;;;;;;;6.00;1.40;;;17.70;99.90;;;;;;5104217;28;20455;-72
2022/09/26 12:59:54;;;;;;;3.43;1.83;;;17.50;99.90;;;;;;5111795;28;20437;-73
2022/09/26 13:02:38;;;;;;;3.57;1.23;;;17.50;99.90;;;;;;5109700;28;20519;-74
2022/09/26 13:05:29;;;;;;;6.60;1.20;;;17.40;99.90;;;;;;5106634;28;20485;-72
2022/09/26 13:08:07;;;;;;;2.60;1.50;;;17.50;99.90;;;;;;5101168;28;20840;-73
2022/09/26 13:10:49;;;;;;;3.20;1.50;;;17.50;99.90;;;;;;5101244;28;20461;-72
2022/09/26 13:13:34;;;;;;;5.40;1.60;;;17.40;99.90;;;;;;5100323;28;20565;-73
2022/09/26 13:16:16;;;;;;;4.73;1.43;;;17.20;99.90;;;;;;5100239;28;20442;-71
2022/09/26 13:18:47;;;;;;;6.30;1.30;;;17.20;99.90;;;;;;5094089;28;20466;-72
2022/09/26 13:21:20;;;;;;;2.43;1.23;;;17.10;99.90;;;;;;5094688;28;20502;-70